createdAt,value
2018-11-01T00:00:50.744Z,100.0
2018-11-01T00:02:50.456Z,100.0
2018-11-01T00:04:50.955Z,100.0
2018-11-01T00:06:50.365Z,100.0
2018-11-01T00:08:50.534Z,100.0
2018-11-01T00:10:50.620Z,100.0
2018-11-01T00:12:50.898Z,100.0
2018-11-01T00:14:50.174Z,100.0
2018-11-01T00:16:50.456Z,100.0
2018-11-01T00:18:50.687Z,100.0
2018-11-01T00:20:50.801Z,100.0
2018-11-01T00:22:50.110Z,100.0
2018-11-01T00:24:50.259Z,100.0
2018-11-01T00:26:50.756Z,100.0
2018-11-01T00:28:50.037Z,100.0
2018-11-01T00:30:50.236Z,100.0
2018-11-01T00:32:50.441Z,100.0
2018-11-01T00:34:49.991Z,100.0
2018-11-01T00:36:50.330Z,100.0
2018-11-01T00:38:50.494Z,100.0
2018-11-01T00:40:50.708Z,100.0
2018-11-01T00:42:50.881Z,100.0
2018-11-01T00:44:50.079Z,100.0
2018-11-01T00:46:50.577Z,100.0
2018-11-01T00:48:50.680Z,100.0
2018-11-01T00:50:50.910Z,100.0
2018-11-01T00:52:50.133Z,100.0
2018-11-01T00:54:50.299Z,100.0
2018-11-01T00:56:50.708Z,100.0
2018-11-01T00:58:50.832Z,100.0
2018-11-01T01:00:50.044Z,100.0
2018-11-01T01:02:50.244Z,100.0
2018-11-01T01:04:50.824Z,100.0
2018-11-01T01:06:50.269Z,100.0
2018-11-01T01:08:50.510Z,100.0
2018-11-01T01:10:50.698Z,100.0
2018-11-01T01:12:50.849Z,100.0
2018-11-01T01:14:50.028Z,100.0
2018-11-01T01:16:50.453Z,100.0
2018-11-01T01:18:51.161Z,100.0
2018-11-01T01:20:50.339Z,100.0
2018-11-01T01:22:50.433Z,100.0
2018-11-01T01:24:50.564Z,100.0
2018-11-01T01:26:50.998Z,100.0
2018-11-01T01:28:50.116Z,100.0
2018-11-01T01:30:50.302Z,100.0
2018-11-01T01:32:50.447Z,100.0
2018-11-01T01:34:49.982Z,100.0
2018-11-01T01:36:50.348Z,100.0
2018-11-01T01:38:50.499Z,100.0
2018-11-01T01:40:50.759Z,100.0
2018-11-01T01:42:50.005Z,100.0
2018-11-01T01:44:50.196Z,100.0
2018-11-01T01:46:50.606Z,100.0
2018-11-01T01:48:50.739Z,100.0
2018-11-01T01:50:50.993Z,100.0
2018-11-01T01:52:50.240Z,100.0
2018-11-01T01:54:50.453Z,100.0
2018-11-01T01:56:50.778Z,100.0
2018-11-01T01:58:49.961Z,100.0
2018-11-01T02:00:50.220Z,100.0
2018-11-01T02:02:50.469Z,100.0
2018-11-01T02:04:50.831Z,100.0
2018-11-01T02:06:50.274Z,100.0
2018-11-01T02:08:50.412Z,100.0
2018-11-01T02:10:50.643Z,100.0
2018-11-01T02:12:51.002Z,100.0
2018-11-01T02:14:50.178Z,100.0
2018-11-01T02:16:50.564Z,100.0
2018-11-01T02:18:50.842Z,100.0
2018-11-01T02:20:50.150Z,100.0
2018-11-01T02:22:50.623Z,100.0
2018-11-01T02:24:49.976Z,100.0
2018-11-01T02:26:50.449Z,100.0
2018-11-01T02:28:50.717Z,100.0
2018-11-01T02:30:50.015Z,100.0
2018-11-01T02:32:50.301Z,100.0
2018-11-01T02:34:50.933Z,100.0
2018-11-01T02:36:50.389Z,100.0
2018-11-01T02:38:51.642Z,100.0
2018-11-01T02:40:49.982Z,100.0
2018-11-01T02:42:50.282Z,100.0
2018-11-01T02:44:50.456Z,100.0
2018-11-01T02:46:50.921Z,100.0
2018-11-01T02:48:50.157Z,100.0
2018-11-01T02:50:50.295Z,100.0
2018-11-01T02:52:50.478Z,100.0
2018-11-01T02:54:50.591Z,100.0
2018-11-01T02:56:50.844Z,100.0
2018-11-01T02:58:50.145Z,100.0
2018-11-01T03:00:50.356Z,100.0
2018-11-01T03:02:50.579Z,100.0
2018-11-01T03:04:50.037Z,100.0
2018-11-01T03:06:50.396Z,100.0
2018-11-01T03:08:50.743Z,100.0
2018-11-01T03:10:50.008Z,100.0
2018-11-01T03:12:50.299Z,100.0
2018-11-01T03:14:50.539Z,100.0
2018-11-01T03:16:51.087Z,100.0
2018-11-01T03:18:50.348Z,100.0
2018-11-01T03:20:50.510Z,100.0
2018-11-01T03:22:50.771Z,100.0
2018-11-01T03:24:50.019Z,100.0
2018-11-01T03:26:50.363Z,100.0
2018-11-01T03:28:50.540Z,100.0
2018-11-01T03:30:50.684Z,100.0
2018-11-01T03:32:50.075Z,100.0
2018-11-01T03:34:50.677Z,100.0
2018-11-01T03:36:50.077Z,100.0
2018-11-01T03:38:50.937Z,100.0
2018-11-01T03:40:50.302Z,100.0
2018-11-01T03:42:50.547Z,100.0
2018-11-01T03:44:50.732Z,100.0
2018-11-01T03:46:50.246Z,100.0
2018-11-01T03:48:50.469Z,100.0
2018-11-01T03:50:50.446Z,100.0
2018-11-01T03:52:50.668Z,100.0
2018-11-01T03:54:50.776Z,100.0
2018-11-01T03:56:50.150Z,100.0
2018-11-01T03:58:50.319Z,100.0
2018-11-01T04:00:50.512Z,100.0
2018-11-01T04:02:50.679Z,100.0
2018-11-01T04:04:50.180Z,100.0
2018-11-01T04:06:50.624Z,100.0
2018-11-01T04:08:50.795Z,100.0
2018-11-01T04:10:50.114Z,100.0
2018-11-01T04:12:50.289Z,100.0
2018-11-01T04:14:50.780Z,100.0
2018-11-01T04:16:50.889Z,100.0
2018-11-01T04:18:50.216Z,100.0
2018-11-01T04:20:50.410Z,100.0
2018-11-01T04:22:50.692Z,100.0
2018-11-01T04:24:50.943Z,100.0
2018-11-01T04:26:50.435Z,100.0
2018-11-01T04:28:50.783Z,100.0
2018-11-01T04:30:50.029Z,100.0
2018-11-01T04:32:50.477Z,100.0
2018-11-01T04:34:50.090Z,100.0
2018-11-01T04:36:50.534Z,100.0
2018-11-01T04:38:50.717Z,100.0
2018-11-01T04:40:50.062Z,100.0
2018-11-01T04:42:50.318Z,100.0
2018-11-01T04:44:50.848Z,100.0
2018-11-01T04:46:50.381Z,100.0
2018-11-01T04:48:50.592Z,100.0
2018-11-01T04:50:50.795Z,100.0
2018-11-01T04:52:49.987Z,100.0
2018-11-01T04:54:50.202Z,100.0
2018-11-01T04:56:50.685Z,100.0
2018-11-01T04:58:50.906Z,100.0
2018-11-01T05:00:50.133Z,100.0
2018-11-01T05:02:50.343Z,100.0
2018-11-01T05:04:51.148Z,100.0
2018-11-01T05:06:50.914Z,100.0
2018-11-01T05:08:50.147Z,100.0
2018-11-01T05:10:50.324Z,100.0
2018-11-01T05:12:50.708Z,100.0
2018-11-01T05:14:49.937Z,100.0
2018-11-01T05:16:50.359Z,100.0
2018-11-01T05:18:50.544Z,100.0
2018-11-01T05:20:50.786Z,100.0
2018-11-01T05:22:49.988Z,100.0
2018-11-01T05:24:50.201Z,100.0
2018-11-01T05:26:50.899Z,100.0
2018-11-01T05:28:50.175Z,100.0
2018-11-01T05:30:50.338Z,100.0
2018-11-01T05:32:50.549Z,100.0
2018-11-01T05:34:50.112Z,100.0
2018-11-01T05:36:50.488Z,100.0
2018-11-01T05:38:50.638Z,100.0
2018-11-01T05:40:50.797Z,100.0
2018-11-01T05:42:50.007Z,100.0
2018-11-01T05:44:50.229Z,100.0
2018-11-01T05:46:50.614Z,100.0
2018-11-01T05:48:50.865Z,100.0
2018-11-01T05:50:49.980Z,100.0
2018-11-01T05:52:50.244Z,100.0
2018-11-01T05:54:50.429Z,100.0
2018-11-01T05:56:50.846Z,100.0
2018-11-01T05:58:50.177Z,100.0
2018-11-01T06:00:50.417Z,100.0
2018-11-01T06:02:50.662Z,100.0
2018-11-01T06:04:50.267Z,100.0
2018-11-01T06:06:50.632Z,100.0
2018-11-01T06:08:50.780Z,100.0
2018-11-01T06:10:50.991Z,100.0
2018-11-01T06:12:50.148Z,100.0
2018-11-01T06:14:50.299Z,100.0
2018-11-01T06:16:50.559Z,100.0
2018-11-01T06:18:50.764Z,100.0
2018-11-01T06:20:50.109Z,100.0
2018-11-01T06:22:50.320Z,100.0
2018-11-01T06:24:50.566Z,100.0
2018-11-01T06:26:49.984Z,100.0
2018-11-01T06:28:50.184Z,100.0
2018-11-01T06:30:50.351Z,100.0
2018-11-01T06:32:50.544Z,100.0
2018-11-01T06:34:50.153Z,100.0
2018-11-01T06:36:50.074Z,100.0
2018-11-01T06:38:50.257Z,100.0
2018-11-01T06:40:50.527Z,100.0
2018-11-01T06:42:50.679Z,100.0
2018-11-01T06:44:51.511Z,100.0
2018-11-01T06:46:49.972Z,100.0
2018-11-01T06:48:50.243Z,100.0
2018-11-01T06:50:50.399Z,100.0
2018-11-01T06:52:50.556Z,100.0
2018-11-01T06:54:50.816Z,100.0
2018-11-01T06:56:50.307Z,100.0
2018-11-01T06:58:51.268Z,100.0
2018-11-01T07:00:50.440Z,100.0
2018-11-01T07:02:50.622Z,100.0
2018-11-01T07:04:50.052Z,100.0
2018-11-01T07:06:50.461Z,100.0
2018-11-01T07:08:50.706Z,100.0
2018-11-01T07:10:50.890Z,100.0
2018-11-01T07:12:50.090Z,100.0
2018-11-01T07:14:50.263Z,100.0
2018-11-01T07:16:51.009Z,100.0
2018-11-01T07:18:50.192Z,100.0
2018-11-01T07:20:50.371Z,100.0
2018-11-01T07:22:50.553Z,100.0
2018-11-01T07:24:50.670Z,100.0
2018-11-01T07:26:50.280Z,100.0
2018-11-01T07:28:50.511Z,100.0
2018-11-01T07:30:50.737Z,100.0
2018-11-01T07:32:52.457Z,100.0
2018-11-01T07:34:50.108Z,100.0
2018-11-01T07:36:50.452Z,100.0
2018-11-01T07:38:50.584Z,100.0
2018-11-01T07:40:50.813Z,100.0
2018-11-01T07:42:50.093Z,100.0
2018-11-01T07:44:50.307Z,100.0
2018-11-01T07:46:50.580Z,99.0
2018-11-01T07:48:51.172Z,99.8
2018-11-01T07:50:50.358Z,97.6
2018-11-01T07:52:51.255Z,97.3
2018-11-01T07:54:50.541Z,97.0
2018-11-01T07:56:50.830Z,96.7
2018-11-01T07:58:50.103Z,97.8
2018-11-01T08:00:50.231Z,97.2
2018-11-01T08:02:50.408Z,97.3
2018-11-01T08:04:50.031Z,96.0
2018-11-01T08:06:50.347Z,95.9
2018-11-01T08:08:50.535Z,95.5
2018-11-01T08:10:50.682Z,94.9
2018-11-01T08:12:50.888Z,96.0
2018-11-01T08:14:50.046Z,96.9
2018-11-01T08:16:50.375Z,96.0
2018-11-01T08:18:50.605Z,95.8
2018-11-01T08:20:52.240Z,95.2
2018-11-01T08:22:50.433Z,94.4
2018-11-01T08:24:50.600Z,94.4
2018-11-01T08:26:49.982Z,93.1
2018-11-01T08:28:50.257Z,93.5
2018-11-01T08:30:50.510Z,93.1
2018-11-01T08:32:50.765Z,93.5
2018-11-01T08:34:50.172Z,92.8
2018-11-01T08:36:50.611Z,93.1
2018-11-01T08:38:50.654Z,91.8
2018-11-01T08:40:51.143Z,92.1
2018-11-01T08:42:50.358Z,91.4
2018-11-01T08:44:50.489Z,90.6
2018-11-01T08:46:50.792Z,90.9
2018-11-01T08:48:50.012Z,90.2
2018-11-01T08:50:50.190Z,90.3
2018-11-01T08:52:50.350Z,90.3
2018-11-01T08:54:50.466Z,89.4
2018-11-01T08:56:50.791Z,90.2
2018-11-01T08:58:49.985Z,89.9
2018-11-01T09:00:50.130Z,89.3
2018-11-01T09:02:50.273Z,89.2
2018-11-01T09:04:50.745Z,89.2
2018-11-01T09:06:50.128Z,89.9
2018-11-01T09:08:50.326Z,89.1
2018-11-01T09:10:50.420Z,89.1
2018-11-01T09:12:51.901Z,88.8
2018-11-01T09:14:50.152Z,88.7
2018-11-01T09:16:50.542Z,88.4
2018-11-01T09:18:50.744Z,88.1
2018-11-01T09:20:50.873Z,88.1
2018-11-01T09:22:50.142Z,87.3
2018-11-01T09:24:50.216Z,86.7
2018-11-01T09:26:51.106Z,86.5
2018-11-01T09:28:50.352Z,85.6
2018-11-01T09:30:50.575Z,85.6
2018-11-01T09:32:50.918Z,85.9
2018-11-01T09:34:50.549Z,85.4
2018-11-01T09:36:50.883Z,85.3
2018-11-01T09:38:50.038Z,84.8
2018-11-01T09:40:50.170Z,84.7
2018-11-01T09:42:50.399Z,84.7
2018-11-01T09:44:50.560Z,85.2
2018-11-01T09:46:54.127Z,85.1
2018-11-01T09:48:50.640Z,85.2
2018-11-01T09:50:50.746Z,85.2
2018-11-01T09:52:49.984Z,85.3
2018-11-01T09:54:50.120Z,85.0
2018-11-01T09:56:50.581Z,84.6
2018-11-01T09:58:50.684Z,84.3
2018-11-01T10:00:51.142Z,85.1
2018-11-01T10:02:50.319Z,85.0
2018-11-01T10:04:50.788Z,84.7
2018-11-01T10:06:50.614Z,84.7
2018-11-01T10:08:50.985Z,84.2
2018-11-01T10:10:50.111Z,84.1
2018-11-01T10:12:50.263Z,83.1
2018-11-01T10:14:50.405Z,82.2
2018-11-01T10:16:53.742Z,82.7
2018-11-01T10:18:50.116Z,83.1
2018-11-01T10:20:50.264Z,84.0
2018-11-01T10:22:51.223Z,83.0
2018-11-01T10:24:50.485Z,83.8
2018-11-01T10:26:50.842Z,81.3
2018-11-01T10:28:50.129Z,81.1
2018-11-01T10:30:50.299Z,80.8
2018-11-01T10:32:50.484Z,80.2
2018-11-01T10:34:49.978Z,80.5
2018-11-01T10:36:50.302Z,82.7
2018-11-01T10:38:50.452Z,80.8
2018-11-01T10:40:51.601Z,79.3
2018-11-01T10:42:50.782Z,79.2
2018-11-01T10:44:50.004Z,79.5
2018-11-01T10:46:50.341Z,79.5
2018-11-01T10:48:50.533Z,78.5
2018-11-01T10:50:50.677Z,78.0
2018-11-01T10:52:50.759Z,78.7
2018-11-01T10:54:50.959Z,78.1
2018-11-01T10:56:50.320Z,76.5
2018-11-01T10:58:50.516Z,74.9
2018-11-01T11:00:52.322Z,74.1
2018-11-01T11:02:50.553Z,77.2
2018-11-01T11:04:50.291Z,75.3
2018-11-01T11:06:50.625Z,74.0
2018-11-01T11:08:50.795Z,74.5
2018-11-01T11:10:50.042Z,73.9
2018-11-01T11:12:50.120Z,73.1
2018-11-01T11:14:50.450Z,73.2
2018-11-01T11:16:50.933Z,72.8
2018-11-01T11:18:50.185Z,71.0
2018-11-01T11:20:54.383Z,70.3
2018-11-01T11:22:50.779Z,71.0
2018-11-01T11:24:49.993Z,71.3
2018-11-01T11:26:50.339Z,71.5
2018-11-01T11:28:50.494Z,71.3
2018-11-01T11:30:50.611Z,71.0
2018-11-01T11:32:50.753Z,70.4
2018-11-01T11:34:50.364Z,70.2
2018-11-01T11:36:50.630Z,70.2
2018-11-01T11:38:51.146Z,68.2
2018-11-01T11:40:50.386Z,68.0
2018-11-01T11:42:50.517Z,65.5
2018-11-01T11:44:50.696Z,69
2018-11-01T11:46:50.058Z,69
2018-11-01T11:48:50.185Z,66.6
2018-11-01T11:50:50.421Z,69
2018-11-01T11:52:50.602Z,69
2018-11-01T11:54:50.724Z,69
2018-11-01T11:56:50.605Z,68
2018-11-01T11:58:50.859Z,68
2018-11-01T12:00:50.083Z,67
2018-11-01T12:02:50.294Z,67
2018-11-01T12:04:50.757Z,67
2018-11-01T12:06:50.095Z,65
2018-11-01T12:08:50.334Z,66
2018-11-01T12:10:50.463Z,67
2018-11-01T12:12:50.592Z,67
2018-11-01T12:14:50.783Z,66
2018-11-01T12:16:50.213Z,67
2018-11-01T12:18:50.374Z,67
2018-11-01T12:20:50.517Z,67
2018-11-01T12:22:50.658Z,67
2018-11-01T12:24:50.841Z,67
2018-11-01T12:26:50.292Z,66
2018-11-01T12:28:50.925Z,67
2018-11-01T12:30:50.260Z,66
2018-11-01T12:32:50.467Z,67
2018-11-01T12:34:50.896Z,67
2018-11-01T12:36:50.310Z,66
2018-11-01T12:38:50.492Z,66
2018-11-01T12:40:50.620Z,66
2018-11-01T12:42:50.826Z,65
2018-11-01T12:44:49.999Z,65
2018-11-01T12:46:50.337Z,65
2018-11-01T12:48:50.556Z,66
2018-11-01T12:50:50.756Z,65
2018-11-01T12:52:50.946Z,66
2018-11-01T12:54:50.108Z,66
2018-11-01T12:56:50.476Z,65
2018-11-01T12:58:50.560Z,65
2018-11-01T13:00:50.762Z,65
2018-11-01T13:02:50.941Z,65
2018-11-01T13:04:50.625Z,65
2018-11-01T13:06:50.910Z,64
2018-11-01T13:08:50.155Z,64
2018-11-01T13:10:51.640Z,64
2018-11-01T13:12:50.892Z,63
2018-11-01T13:14:50.111Z,63
2018-11-01T13:16:50.484Z,63
2018-11-01T13:18:50.696Z,61
2018-11-01T13:20:50.918Z,62
2018-11-01T13:22:50.222Z,62
2018-11-01T13:24:50.447Z,61
2018-11-01T13:26:50.819Z,61
2018-11-01T13:28:50.054Z,61
2018-11-01T13:30:50.249Z,61
2018-11-01T13:32:50.397Z,61
2018-11-01T13:34:52.060Z,61
2018-11-01T13:36:50.467Z,60
2018-11-01T13:38:50.708Z,60
2018-11-01T13:40:55.926Z,60
2018-11-01T13:42:50.456Z,61
2018-11-01T13:44:50.602Z,60
2018-11-01T13:46:50.083Z,60
2018-11-01T13:48:50.316Z,60
2018-11-01T13:50:50.463Z,60
2018-11-01T13:52:50.650Z,61
2018-11-01T13:54:51.990Z,61
2018-11-01T13:56:50.514Z,60
2018-11-01T13:58:50.728Z,60
2018-11-01T14:00:50.885Z,60
2018-11-01T14:02:50.143Z,60
2018-11-01T14:04:50.584Z,60
2018-11-01T14:06:50.011Z,60
2018-11-01T14:08:50.178Z,61
2018-11-01T14:10:50.344Z,60
2018-11-01T14:12:50.453Z,60
2018-11-01T14:14:54.871Z,60
2018-11-01T14:16:50.490Z,61
2018-11-01T14:18:50.591Z,61
2018-11-01T14:20:50.807Z,60
2018-11-01T14:22:50.972Z,60
2018-11-01T14:24:50.162Z,61
2018-11-01T14:26:50.494Z,61
2018-11-01T14:28:50.624Z,61
2018-11-01T14:30:51.156Z,61
2018-11-01T14:32:50.345Z,61
2018-11-01T14:34:50.903Z,61
2018-11-01T14:36:50.216Z,61
2018-11-01T14:38:50.396Z,61
2018-11-01T14:40:50.523Z,61
2018-11-01T14:42:50.715Z,61
2018-11-01T14:44:50.834Z,61
2018-11-01T14:46:50.287Z,60.4
2018-11-01T14:48:50.528Z,61.0
2018-11-01T14:50:50.757Z,61.7
2018-11-01T14:52:57.119Z,62.2
2018-11-01T14:55:01.620Z,63.2
2018-11-01T14:57:04.547Z,63.2
2018-11-01T14:59:05.098Z,63.9
2018-11-01T15:00:50.600Z,64.1
2018-11-01T15:02:50.808Z,63.4
2018-11-01T15:04:50.328Z,63.6
2018-11-01T15:06:51.595Z,64.1
2018-11-01T15:08:50.862Z,64.1
2018-11-01T15:10:50.089Z,64.4
2018-11-01T15:12:50.432Z,64.6
2018-11-01T15:14:50.627Z,65.4
2018-11-01T15:16:49.991Z,66.1
2018-11-01T15:18:50.345Z,66.4
2018-11-01T15:20:50.566Z,67.1
2018-11-01T15:22:50.693Z,67.8
2018-11-01T15:24:50.900Z,68.6
2018-11-01T15:26:50.218Z,69.0
2018-11-01T15:28:50.389Z,69.5
2018-11-01T15:30:50.542Z,69.1
2018-11-01T15:32:50.893Z,69.8
2018-11-01T15:34:50.365Z,70.0
2018-11-01T15:36:50.779Z,69.9
2018-11-01T15:38:51.045Z,71.1
2018-11-01T15:40:50.189Z,71.5
2018-11-01T15:42:50.381Z,71.7
2018-11-01T15:44:50.534Z,71.6
2018-11-01T15:46:50.078Z,71.6
2018-11-01T15:48:50.295Z,72.7
2018-11-01T15:50:50.493Z,72.5
2018-11-01T15:52:50.722Z,72.7
2018-11-01T15:54:50.979Z,72.8
2018-11-01T15:56:50.410Z,73.9
2018-11-01T15:58:50.566Z,74.2
2018-11-01T16:00:50.811Z,74.8
2018-11-01T16:02:50.015Z,75.3
2018-11-01T16:04:50.573Z,75.9
2018-11-01T16:06:50.974Z,75.6
2018-11-01T16:08:50.171Z,76.1
2018-11-01T16:10:51.868Z,76.5
2018-11-01T16:12:50.360Z,77.5
2018-11-01T16:14:50.562Z,77.4
2018-11-01T16:16:50.862Z,78.0
2018-11-01T16:18:50.111Z,79.2
2018-11-01T16:20:50.905Z,80.2
2018-11-01T16:22:50.185Z,81.4
2018-11-01T16:24:50.452Z,83.0
2018-11-01T16:26:51.392Z,85.6
2018-11-01T16:28:50.673Z,85.7
2018-11-01T16:30:50.802Z,87.9
2018-11-01T16:32:50.049Z,88.4
2018-11-01T16:34:50.690Z,88.5
2018-11-01T16:36:50.433Z,89.5
2018-11-01T16:38:50.654Z,89.2
2018-11-01T16:40:50.837Z,90.6
2018-11-01T16:42:51.415Z,90.3
2018-11-01T16:44:50.697Z,89.9
2018-11-01T16:46:50.096Z,90.5
2018-11-01T16:48:50.366Z,90.7
2018-11-01T16:50:51.045Z,92.0
2018-11-01T16:52:51.889Z,92.7
2018-11-01T16:54:50.227Z,93.3
2018-11-01T16:56:50.627Z,93.7
2018-11-01T16:58:50.760Z,94.4
2018-11-01T17:00:50.029Z,94.8
2018-11-01T17:02:50.894Z,95.2
2018-11-01T17:04:50.250Z,96.1
2018-11-01T17:06:50.706Z,95.9
2018-11-01T17:08:50.972Z,96.5
2018-11-01T17:10:50.212Z,96.7
2018-11-01T17:12:50.556Z,97.0
2018-11-01T17:14:50.920Z,97.5
2018-11-01T17:16:50.354Z,98.1
2018-11-01T17:18:50.473Z,98.1
2018-11-01T17:20:50.495Z,98.2
2018-11-01T17:22:50.670Z,98.8
2018-11-01T17:24:51.302Z,99.2
2018-11-01T17:26:50.727Z,99.7
2018-11-01T17:28:51.057Z,99.2
2018-11-01T17:30:50.207Z,97.0
2018-11-01T17:32:50.469Z,96.7
2018-11-01T17:34:52.577Z,97.9
2018-11-01T17:36:50.202Z,98.1
2018-11-01T17:38:50.387Z,99.2
2018-11-01T17:40:50.474Z,99.3
2018-11-01T17:42:50.484Z,100.0
2018-11-01T17:44:51.766Z,100.0
2018-11-01T17:46:50.329Z,100.0
2018-11-01T17:48:50.332Z,100.0
2018-11-01T17:50:50.358Z,100.0
2018-11-01T17:52:50.361Z,100.0
2018-11-01T17:54:50.395Z,100.0
2018-11-01T17:56:50.686Z,100.0
2018-11-01T17:58:50.913Z,100.0
2018-11-01T18:00:50.179Z,100.0
2018-11-01T18:02:51.562Z,100.0
2018-11-01T18:04:50.164Z,100.0
2018-11-01T18:06:50.558Z,100.0
2018-11-01T18:08:51.557Z,100.0
2018-11-01T18:10:50.776Z,100.0
2018-11-01T18:12:50.033Z,100.0
2018-11-01T18:14:50.364Z,100.0
2018-11-01T18:16:51.458Z,100.0
2018-11-01T18:18:50.782Z,100.0
2018-11-01T18:20:50.796Z,100.0
2018-11-01T18:22:50.847Z,100.0
2018-11-01T18:24:50.031Z,100.0
2018-11-01T18:26:51.473Z,100.0
2018-11-01T18:28:51.540Z,100.0
2018-11-01T18:30:50.734Z,100.0
2018-11-01T18:32:53.117Z,100.0
2018-11-01T18:34:50.901Z,100.0
2018-11-01T18:36:50.271Z,100.0
2018-11-01T18:38:50.382Z,100.0
2018-11-01T18:40:50.457Z,100.0
2018-11-01T18:42:50.422Z,100.0
2018-11-01T18:44:50.568Z,100.0
2018-11-01T18:46:49.838Z,100.0
2018-11-01T18:48:50.012Z,100.0
2018-11-01T18:50:50.184Z,100.0
2018-11-01T18:52:50.364Z,100.0
2018-11-01T18:54:50.651Z,100.0
2018-11-01T18:56:50.105Z,100.0
2018-11-01T18:58:50.278Z,100.0
2018-11-01T19:00:51.443Z,100.0
2018-11-01T19:02:50.825Z,100.0
2018-11-01T19:04:50.218Z,100.0
2018-11-01T19:06:50.887Z,100.0
2018-11-01T19:08:51.159Z,100.0
2018-11-01T19:10:50.360Z,100.0
2018-11-01T19:12:50.489Z,100.0
2018-11-01T19:14:50.726Z,100.0
2018-11-01T19:16:50.048Z,100.0
2018-11-01T19:18:50.677Z,100.0
2018-11-01T19:20:50.865Z,100.0
2018-11-01T19:22:50.146Z,100.0
2018-11-01T19:24:50.403Z,100.0
2018-11-01T19:26:51.424Z,100.0
2018-11-01T19:28:50.624Z,100.0
2018-11-01T19:30:50.626Z,100.0
2018-11-01T19:32:49.824Z,100.0
2018-11-01T19:34:50.116Z,100.0
2018-11-01T19:36:50.500Z,100.0
2018-11-01T19:38:50.460Z,100.0
2018-11-01T19:40:50.419Z,100.0
2018-11-01T19:42:50.450Z,100.0
2018-11-01T19:44:50.626Z,100.0
2018-11-01T19:46:50.502Z,100.0
2018-11-01T19:48:50.694Z,100.0
2018-11-01T19:50:52.532Z,100.0
2018-11-01T19:52:51.263Z,100.0
2018-11-01T19:54:52.051Z,100.0
2018-11-01T19:56:50.637Z,100.0
2018-11-01T19:58:50.596Z,100.0
2018-11-01T20:00:51.436Z,100.0
2018-11-01T20:02:51.591Z,100.0
2018-11-01T20:04:50.124Z,100.0
2018-11-01T20:06:50.328Z,100.0
2018-11-01T20:08:50.791Z,100.0
2018-11-01T20:10:49.822Z,100.0
2018-11-01T20:12:49.833Z,100.0
2018-11-01T20:14:51.029Z,100.0
2018-11-01T20:16:50.572Z,100.0
2018-11-01T20:18:52.225Z,100.0
2018-11-01T20:20:50.467Z,100.0
2018-11-01T20:22:50.733Z,100.0
2018-11-01T20:24:51.029Z,100.0
2018-11-01T20:26:50.275Z,100.0
2018-11-01T20:28:50.357Z,100.0
2018-11-01T20:30:50.350Z,100.0
2018-11-01T20:32:50.477Z,100.0
2018-11-01T20:34:49.978Z,100.0
2018-11-01T20:36:50.198Z,100.0
2018-11-01T20:38:50.171Z,100.0
2018-11-01T20:40:50.494Z,100.0
2018-11-01T20:42:52.175Z,100.0
2018-11-01T20:44:50.579Z,100.0
2018-11-01T20:46:51.036Z,100.0
2018-11-01T20:48:50.306Z,100.0
2018-11-01T20:50:50.733Z,100.0
2018-11-01T20:52:51.058Z,100.0
2018-11-01T20:54:50.330Z,100.0
2018-11-01T20:56:50.683Z,100.0
2018-11-01T20:58:50.066Z,100.0
2018-11-01T21:00:50.290Z,100.0
2018-11-01T21:02:50.588Z,100.0
2018-11-01T21:04:50.933Z,100.0
2018-11-01T21:06:50.447Z,100.0
2018-11-01T21:08:50.689Z,100.0
2018-11-01T21:10:52.589Z,100.0
2018-11-01T21:12:50.927Z,100.0
2018-11-01T21:14:50.175Z,100.0
2018-11-01T21:16:50.981Z,100.0
2018-11-01T21:18:50.063Z,100.0
2018-11-01T21:20:50.113Z,100.0
2018-11-01T21:22:50.223Z,100.0
2018-11-01T21:24:50.278Z,100.0
2018-11-01T21:26:50.381Z,100.0
2018-11-01T21:28:50.416Z,100.0
2018-11-01T21:30:50.482Z,100.0
2018-11-01T21:32:50.692Z,100.0
2018-11-01T21:34:51.873Z,100.0
2018-11-01T21:36:50.533Z,100.0
2018-11-01T21:38:50.745Z,100.0
2018-11-01T21:40:50.989Z,100.0
2018-11-01T21:42:50.277Z,100.0
2018-11-01T21:44:52.197Z,100.0
2018-11-01T21:46:50.770Z,100.0
2018-11-01T21:48:50.075Z,100.0
2018-11-01T21:50:50.212Z,100.0
2018-11-01T21:52:51.028Z,100.0
2018-11-01T21:54:51.647Z,100.0
2018-11-01T21:56:50.236Z,100.0
2018-11-01T21:58:50.310Z,100.0
2018-11-01T22:00:50.365Z,100.0
2018-11-01T22:02:50.399Z,100.0
2018-11-01T22:04:50.518Z,100.0
2018-11-01T22:06:49.984Z,100.0
2018-11-01T22:08:49.994Z,100.0
2018-11-01T22:10:50.061Z,100.0
2018-11-01T22:12:50.081Z,100.0
2018-11-01T22:14:50.306Z,100.0
2018-11-01T22:16:50.784Z,100.0
2018-11-01T22:18:50.154Z,100.0
2018-11-01T22:20:50.170Z,100.0
2018-11-01T22:22:50.299Z,100.0
2018-11-01T22:24:50.257Z,100.0
2018-11-01T22:26:50.429Z,100.0
2018-11-01T22:28:51.381Z,100.0
2018-11-01T22:30:50.642Z,100.0
2018-11-01T22:32:50.648Z,100.0
2018-11-01T22:34:49.964Z,100.0
2018-11-01T22:36:50.301Z,100.0
2018-11-01T22:38:51.481Z,100.0
2018-11-01T22:40:50.806Z,100.0
2018-11-01T22:42:50.038Z,100.0
2018-11-01T22:44:50.274Z,100.0
2018-11-01T22:46:51.303Z,100.0
2018-11-01T22:48:50.631Z,100.0
2018-11-01T22:50:50.592Z,100.0
2018-11-01T22:52:50.749Z,100.0
2018-11-01T22:54:49.901Z,100.0
2018-11-01T22:56:51.606Z,100.0
2018-11-01T22:58:50.024Z,100.0
2018-11-01T23:00:50.159Z,100.0
2018-11-01T23:02:50.436Z,100.0
2018-11-01T23:04:50.847Z,100.0
2018-11-01T23:06:51.304Z,100.0
2018-11-01T23:08:50.458Z,100.0
2018-11-01T23:10:50.605Z,100.0
2018-11-01T23:12:50.830Z,100.0
2018-11-01T23:14:50.205Z,100.0
2018-11-01T23:16:50.435Z,100.0
2018-11-01T23:18:50.672Z,100.0
2018-11-01T23:20:51.007Z,100.0
2018-11-01T23:22:50.214Z,100.0
2018-11-01T23:24:50.425Z,100.0
2018-11-01T23:26:50.773Z,100.0
2018-11-01T23:28:50.113Z,100.0
2018-11-01T23:30:50.427Z,100.0
2018-11-01T23:32:50.975Z,100.0
2018-11-01T23:34:50.290Z,100.0
2018-11-01T23:36:50.519Z,100.0
2018-11-01T23:38:50.695Z,100.0
2018-11-01T23:40:50.983Z,100.0
2018-11-01T23:42:50.217Z,100.0
2018-11-01T23:44:50.468Z,100.0
2018-11-01T23:46:50.855Z,100.0
2018-11-01T23:48:50.038Z,100.0
2018-11-01T23:50:50.492Z,100.0
2018-11-01T23:52:50.657Z,100.0
2018-11-01T23:54:50.843Z,100.0
2018-11-01T23:56:50.420Z,100.0
2018-11-01T23:58:51.881Z,100.0
